Bloomingrose, West Virginia
Current Conditions -  °F | °C
As of 12:54 AM on Tuesday 21 Oct 2014 (Local Time) from KCRW Reporting Station
Overcast Overcast  
Wind Chill: 51°   Ceiling: 11000
Heat Index: 51°   Visibility: 8mi
Dew Point: 50°   Wind: 6mph
Humidity: 96%   Direction: 200°SSW
Pressure: 29.92"   Gusts: NA
Location:  38.14°N, 81.63°W
Report Text: KCRW 210454Z 20005KT 8SM SCT080 OVC110 11/10 A2992 RMK AO2 SLP128 VLY FG T01060100 401560017
Loading
Personal Weather Stations






























Interactive Weather Map
Tropical Storm Tracking
New forecast layout! Learn more

10-Day Weather Forecast

Advertisements
Track Severe Weather on mobile